createdAt,value
2022-11-05T00:00:12.407Z,11.96
2022-11-05T00:01:12.429Z,11.97
2022-11-05T00:03:16.544Z,11.98
2022-11-05T00:04:16.511Z,11.97
2022-11-05T00:06:20.576Z,12.03
2022-11-05T00:07:20.573Z,12.00
2022-11-05T00:09:13.615Z,12.01
2022-11-05T00:10:13.638Z,11.90
2022-11-05T00:12:17.701Z,11.87
2022-11-05T00:13:17.728Z,11.87
2022-11-05T00:15:10.718Z,11.96
2022-11-05T00:16:10.710Z,12.00
2022-11-05T00:18:14.749Z,11.88
2022-11-05T00:19:14.770Z,11.90
2022-11-05T00:21:18.836Z,11.90
2022-11-05T00:22:18.829Z,11.87
2022-11-05T00:24:11.876Z,11.87
2022-11-05T00:25:11.866Z,11.90
2022-11-05T00:27:04.827Z,11.84
2022-11-05T00:28:04.851Z,11.94
2022-11-05T00:29:57.864Z,11.97
2022-11-05T00:30:57.890Z,11.96
2022-11-05T00:31:57.921Z,11.96
2022-11-05T00:32:57.962Z,11.87
2022-11-05T00:33:57.986Z,11.88
2022-11-05T00:34:58.026Z,11.97
2022-11-05T00:35:58.050Z,12.00
2022-11-05T00:36:58.084Z,11.98
2022-11-05T00:37:58.113Z,11.88
2022-11-05T00:38:58.146Z,11.90
2022-11-05T00:39:58.175Z,11.87
2022-11-05T00:40:58.211Z,11.93
2022-11-05T00:41:58.243Z,11.88
2022-11-05T00:42:58.273Z,11.98
2022-11-05T00:43:58.307Z,11.93
2022-11-05T00:44:58.340Z,11.87
2022-11-05T00:45:58.369Z,11.96
2022-11-05T00:46:59.952Z,11.88
2022-11-05T00:47:58.450Z,11.94
2022-11-05T00:48:58.473Z,11.98
2022-11-05T00:49:58.499Z,11.85
2022-11-05T00:50:58.529Z,11.94
2022-11-05T00:51:58.559Z,11.97
2022-11-05T00:52:58.593Z,11.88
2022-11-05T00:53:58.623Z,11.97
2022-11-05T00:54:58.656Z,11.96
2022-11-05T00:55:58.686Z,11.93
2022-11-05T00:57:04.340Z,12.00
2022-11-05T00:57:58.760Z,11.90
2022-11-05T00:58:58.783Z,11.93
2022-11-05T00:59:58.819Z,11.90
2022-11-05T01:00:58.845Z,11.87
2022-11-05T01:01:59.074Z,11.90
2022-11-05T01:02:58.912Z,11.97
2022-11-05T01:03:58.941Z,11.88
2022-11-05T01:04:58.975Z,11.84
2022-11-05T01:05:59.005Z,11.87
2022-11-05T01:06:59.038Z,11.94
2022-11-05T01:07:59.069Z,11.90
2022-11-05T01:08:59.107Z,11.96
2022-11-05T01:09:59.143Z,11.88
2022-11-05T01:10:59.167Z,11.85
2022-11-05T01:11:59.196Z,11.85
2022-11-05T01:12:59.228Z,11.93
2022-11-05T01:13:59.260Z,11.93
2022-11-05T01:14:59.295Z,11.88
2022-11-05T01:15:59.324Z,11.96
2022-11-05T01:16:59.356Z,12.01
2022-11-05T01:17:59.387Z,11.96
2022-11-05T01:18:59.424Z,11.96
2022-11-05T01:19:59.454Z,11.87
2022-11-05T01:20:59.484Z,11.97
2022-11-05T01:21:59.515Z,11.96
2022-11-05T01:22:59.551Z,11.97
2022-11-05T01:23:59.579Z,11.97
2022-11-05T01:24:59.695Z,11.97
2022-11-05T01:25:59.643Z,11.90
2022-11-05T01:26:59.682Z,11.97
2022-11-05T01:27:59.707Z,11.98
2022-11-05T01:28:59.815Z,11.96
2022-11-05T01:29:59.772Z,11.88
2022-11-05T01:30:59.803Z,11.88
2022-11-05T01:31:59.837Z,11.81
2022-11-05T01:32:59.869Z,11.88
2022-11-05T01:33:59.898Z,11.93
2022-11-05T01:34:59.931Z,11.94
2022-11-05T01:35:59.962Z,11.82
2022-11-05T01:36:59.996Z,11.94
2022-11-05T01:38:00.033Z,11.93
2022-11-05T01:39:00.059Z,11.88
2022-11-05T01:40:00.117Z,11.88
2022-11-05T01:41:00.267Z,11.94
2022-11-05T01:42:00.153Z,11.94
2022-11-05T01:43:00.187Z,11.88
2022-11-05T01:44:00.223Z,11.85
2022-11-05T01:45:00.256Z,11.84
2022-11-05T01:46:00.280Z,11.82
2022-11-05T01:47:00.312Z,11.79
2022-11-05T01:48:00.349Z,11.82
2022-11-05T01:49:03.349Z,11.74
2022-11-05T01:50:00.409Z,11.81
2022-11-05T01:51:00.442Z,11.75
2022-11-05T01:52:00.481Z,11.77
2022-11-05T01:53:00.505Z,11.81
2022-11-05T01:54:00.537Z,11.77
2022-11-05T01:55:00.570Z,11.79
2022-11-05T01:56:00.621Z,11.69
2022-11-05T01:57:00.653Z,11.82
2022-11-05T01:58:00.664Z,11.74
2022-11-05T01:59:00.696Z,11.75
2022-11-05T02:00:00.726Z,11.67
2022-11-05T02:01:00.759Z,11.67
2022-11-05T02:02:00.967Z,11.67
2022-11-05T02:03:00.842Z,11.72
2022-11-05T02:04:00.854Z,11.72
2022-11-05T02:05:00.887Z,11.69
2022-11-05T02:06:00.920Z,11.69
2022-11-05T02:07:00.949Z,11.77
2022-11-05T02:08:00.981Z,11.74
2022-11-05T02:09:01.016Z,11.74
2022-11-05T02:10:01.050Z,11.74
2022-11-05T02:11:01.077Z,11.78
2022-11-05T02:12:01.109Z,11.72
2022-11-05T02:13:01.145Z,11.69
2022-11-05T02:14:01.174Z,11.69
2022-11-05T02:15:01.203Z,11.75
2022-11-05T02:16:01.234Z,11.77
2022-11-05T02:17:01.268Z,11.66
2022-11-05T02:18:01.308Z,11.69
2022-11-05T02:19:01.334Z,11.70
2022-11-05T02:20:01.371Z,11.70
2022-11-05T02:21:01.398Z,11.67
2022-11-05T02:22:01.428Z,11.78
2022-11-05T02:23:01.457Z,11.67
2022-11-05T02:24:01.494Z,11.66
2022-11-05T02:25:01.520Z,11.69
2022-11-05T02:26:01.555Z,11.69
2022-11-05T02:27:01.584Z,11.72
2022-11-05T02:28:01.619Z,11.66
2022-11-05T02:29:01.647Z,11.66
2022-11-05T02:30:01.686Z,11.64
2022-11-05T02:31:01.710Z,11.67
2022-11-05T02:32:01.745Z,11.67
2022-11-05T02:33:01.774Z,11.60
2022-11-05T02:34:01.809Z,11.63
2022-11-05T02:35:01.852Z,11.63
2022-11-05T02:36:01.874Z,11.63
2022-11-05T02:37:01.906Z,11.57
2022-11-05T02:38:01.933Z,11.64
2022-11-05T02:39:01.966Z,11.56
2022-11-05T02:40:01.999Z,11.59
2022-11-05T02:42:44.838Z,11.60
2022-11-05T02:43:44.815Z,11.53
2022-11-05T02:45:48.897Z,11.51
2022-11-05T02:46:48.883Z,11.51
2022-11-05T02:48:52.965Z,11.46
2022-11-05T02:49:52.958Z,11.51
2022-11-05T02:51:57.007Z,11.46
2022-11-05T02:52:57.030Z,11.54
2022-11-05T02:55:01.121Z,11.54
2022-11-05T02:56:01.106Z,11.57
2022-11-05T02:58:05.162Z,11.49
2022-11-05T02:59:05.178Z,11.53
2022-11-05T03:01:09.229Z,11.49
2022-11-05T03:02:09.357Z,11.42
2022-11-05T03:04:13.299Z,11.46
2022-11-05T03:05:13.324Z,11.35
2022-11-05T03:07:06.291Z,11.41
2022-11-05T03:08:06.315Z,11.45
2022-11-05T03:10:10.363Z,11.39
2022-11-05T03:11:10.389Z,11.33
2022-11-05T03:13:14.439Z,11.33
2022-11-05T03:14:14.474Z,11.33
2022-11-05T03:16:18.515Z,11.24
2022-11-05T03:17:18.538Z,11.28
2022-11-05T03:19:22.585Z,11.31
2022-11-05T03:20:22.613Z,11.28
2022-11-05T03:22:26.658Z,11.28
2022-11-05T03:23:26.684Z,11.23
2022-11-05T03:25:30.731Z,11.23
2022-11-05T03:26:30.757Z,11.21
2022-11-05T03:28:34.803Z,11.20
2022-11-05T03:29:34.832Z,11.24
2022-11-05T03:31:38.881Z,11.20
2022-11-05T03:32:38.903Z,11.16
2022-11-05T03:34:42.952Z,11.20
2022-11-05T03:35:42.987Z,11.16
2022-11-05T03:37:47.037Z,11.19
2022-11-05T03:38:47.050Z,11.12
2022-11-05T03:40:51.132Z,11.17
2022-11-05T03:41:51.122Z,11.17
2022-11-05T03:43:55.166Z,11.12
2022-11-05T03:44:55.193Z,11.08
2022-11-05T03:46:48.162Z,11.09
2022-11-05T03:47:48.184Z,11.13
2022-11-05T03:49:52.231Z,11.11
2022-11-05T03:50:52.262Z,11.06
2022-11-05T03:52:56.338Z,11.05
2022-11-05T03:53:56.331Z,11.02
2022-11-05T03:56:00.408Z,10.98
2022-11-05T03:57:00.398Z,10.94
2022-11-05T03:59:04.493Z,10.95
2022-11-05T04:00:04.540Z,11.01
2022-11-05T04:02:08.735Z,10.94
2022-11-05T04:03:08.831Z,10.94
2022-11-05T04:05:12.631Z,10.93
2022-11-05T04:06:14.009Z,10.99
2022-11-05T04:08:16.679Z,10.95
2022-11-05T04:09:16.695Z,10.90
2022-11-05T04:11:20.746Z,10.90
2022-11-05T04:12:20.771Z,10.86
2022-11-05T04:14:24.819Z,10.84
2022-11-05T04:15:24.844Z,10.90
2022-11-05T04:17:28.894Z,10.88
2022-11-05T04:18:28.925Z,10.76
2022-11-05T04:20:32.964Z,10.80
2022-11-05T04:21:32.991Z,10.86
2022-11-05T04:23:37.038Z,10.83
2022-11-05T04:24:37.061Z,10.78
2022-11-05T04:26:30.035Z,10.78
2022-11-05T04:27:30.059Z,10.73
2022-11-05T04:29:34.111Z,10.80
2022-11-05T04:30:34.136Z,10.73
2022-11-05T04:31:34.168Z,10.73
2022-11-05T04:32:34.286Z,10.72
2022-11-05T04:33:34.233Z,10.75
2022-11-05T04:34:34.259Z,10.75
2022-11-05T04:35:34.290Z,10.70
2022-11-05T04:36:34.322Z,10.70
2022-11-05T04:37:34.351Z,10.70
2022-11-05T04:38:34.382Z,10.65
2022-11-05T04:39:34.418Z,10.68
2022-11-05T04:40:34.450Z,10.76
2022-11-05T04:41:34.476Z,10.70
2022-11-05T04:42:34.508Z,10.68
2022-11-05T04:43:34.539Z,10.70
2022-11-05T04:44:34.570Z,10.62
2022-11-05T04:45:34.602Z,10.68
2022-11-05T04:46:34.632Z,10.63
2022-11-05T04:47:34.664Z,10.73
2022-11-05T04:48:34.698Z,10.62
2022-11-05T04:49:34.728Z,10.69
2022-11-05T04:50:34.757Z,10.66
2022-11-05T04:51:34.789Z,10.66
2022-11-05T04:52:34.820Z,10.70
2022-11-05T04:53:34.850Z,10.68
2022-11-05T04:54:34.883Z,10.72
2022-11-05T04:55:34.912Z,10.70
2022-11-05T04:56:34.946Z,10.62
2022-11-05T04:57:34.976Z,10.51
2022-11-05T04:58:35.010Z,10.57
2022-11-05T04:59:35.046Z,10.51
2022-11-05T05:00:35.102Z,10.63
2022-11-05T05:01:35.186Z,10.60
2022-11-05T05:02:35.133Z,10.62
2022-11-05T05:03:35.160Z,10.60
2022-11-05T05:04:35.195Z,10.57
2022-11-05T05:05:35.222Z,10.55
2022-11-05T05:06:35.257Z,10.52
2022-11-05T05:07:35.286Z,10.57
2022-11-05T05:08:35.317Z,10.51
2022-11-05T05:09:35.347Z,10.55
2022-11-05T05:10:35.387Z,10.55
2022-11-05T05:11:35.412Z,10.44
2022-11-05T05:12:35.443Z,10.47
2022-11-05T05:13:35.471Z,10.46
2022-11-05T05:14:35.503Z,10.47
2022-11-05T05:15:35.533Z,10.42
2022-11-05T05:16:35.566Z,10.49
2022-11-05T05:17:35.599Z,10.43
2022-11-05T05:18:35.628Z,10.51
2022-11-05T05:19:35.659Z,10.47
2022-11-05T05:20:35.691Z,10.43
2022-11-05T05:21:35.719Z,10.51
2022-11-05T05:22:35.751Z,10.44
2022-11-05T05:23:35.784Z,10.42
2022-11-05T05:24:35.814Z,10.47
2022-11-05T05:25:35.842Z,10.43
2022-11-05T05:26:35.876Z,10.47
2022-11-05T05:27:35.906Z,10.44
2022-11-05T05:28:35.938Z,10.46
2022-11-05T05:29:35.970Z,10.44
2022-11-05T05:30:35.999Z,10.44
2022-11-05T05:31:36.030Z,10.43
2022-11-05T05:32:36.061Z,10.52
2022-11-05T05:33:36.093Z,10.46
2022-11-05T05:34:36.122Z,10.44
2022-11-05T05:35:36.158Z,10.42
2022-11-05T05:36:36.226Z,10.43
2022-11-05T05:37:36.217Z,10.39
2022-11-05T05:38:36.271Z,10.39
2022-11-05T05:39:36.280Z,10.35
2022-11-05T05:40:36.310Z,10.42
2022-11-05T05:41:36.343Z,10.39
2022-11-05T05:42:41.807Z,10.36
2022-11-05T05:43:36.414Z,10.34
2022-11-05T05:44:36.434Z,10.34
2022-11-05T05:45:36.467Z,10.35
2022-11-05T05:46:36.492Z,10.38
2022-11-05T05:47:36.527Z,10.34
2022-11-05T05:48:36.593Z,10.35
2022-11-05T05:49:36.589Z,10.34
2022-11-05T05:50:36.617Z,10.32
2022-11-05T05:51:36.649Z,10.26
2022-11-05T05:52:36.684Z,10.32
2022-11-05T05:53:36.715Z,10.25
2022-11-05T05:54:42.319Z,10.31
2022-11-05T05:55:36.774Z,10.26
2022-11-05T05:56:36.804Z,10.24
2022-11-05T05:57:36.835Z,10.25
2022-11-05T05:58:36.863Z,10.17
2022-11-05T05:59:36.898Z,10.22
2022-11-05T06:00:36.926Z,10.24
2022-11-05T06:01:37.120Z,10.17
2022-11-05T06:02:37.036Z,10.17
2022-11-05T06:03:37.020Z,10.20
2022-11-05T06:04:37.048Z,10.20
2022-11-05T06:05:37.083Z,10.14
2022-11-05T06:06:37.138Z,10.14
2022-11-05T06:07:37.660Z,10.22
2022-11-05T06:08:37.173Z,10.14
2022-11-05T06:09:37.205Z,10.09
2022-11-05T06:10:37.315Z,10.11
2022-11-05T06:11:37.279Z,10.11
2022-11-05T06:12:37.295Z,10.14
2022-11-05T06:13:37.335Z,10.10
2022-11-05T06:14:37.361Z,10.06
2022-11-05T06:15:37.390Z,10.16
2022-11-05T06:16:37.418Z,10.11
2022-11-05T06:17:37.451Z,10.07
2022-11-05T06:18:37.489Z,10.07
2022-11-05T06:19:37.516Z,10.10
2022-11-05T06:20:37.541Z,10.04
2022-11-05T06:21:37.576Z,10.06
2022-11-05T06:22:37.606Z,10.02
2022-11-05T06:23:37.636Z,10.01
2022-11-05T06:24:37.667Z,10.02
2022-11-05T06:25:41.235Z,9.96
2022-11-05T06:26:37.732Z,10.10
2022-11-05T06:27:37.763Z,9.89
2022-11-05T06:28:37.788Z,10.01
2022-11-05T06:29:37.820Z,10.02
2022-11-05T06:30:37.854Z,9.98
2022-11-05T06:31:37.881Z,10.04
2022-11-05T06:32:37.913Z,10.02
2022-11-05T06:33:37.941Z,9.98
2022-11-05T06:34:37.982Z,10.02
2022-11-05T06:35:38.004Z,10.01
2022-11-05T06:36:38.032Z,10.06
2022-11-05T06:37:38.089Z,9.96
2022-11-05T06:38:38.112Z,9.92
2022-11-05T06:39:38.128Z,9.98
2022-11-05T06:40:38.155Z,10.02
2022-11-05T06:42:03.867Z,9.99
2022-11-05T06:42:38.216Z,9.91
2022-11-05T06:43:38.247Z,9.99
2022-11-05T06:44:38.277Z,9.96
2022-11-05T06:45:38.309Z,9.99
2022-11-05T06:46:38.339Z,9.96
2022-11-05T06:47:38.370Z,10.01
2022-11-05T06:48:38.400Z,9.86
2022-11-05T06:49:38.435Z,10.01
2022-11-05T06:50:38.465Z,9.88
2022-11-05T06:51:38.494Z,9.93
2022-11-05T06:52:41.233Z,9.86
2022-11-05T06:53:38.556Z,9.93
2022-11-05T06:54:38.586Z,9.95
2022-11-05T06:55:38.616Z,9.89
2022-11-05T06:56:38.648Z,9.86
2022-11-05T06:57:38.677Z,9.83
2022-11-05T06:58:38.708Z,9.92
2022-11-05T06:59:38.740Z,9.91
2022-11-05T07:00:38.813Z,9.96
2022-11-05T07:01:38.938Z,9.91
2022-11-05T07:02:38.832Z,9.93
2022-11-05T07:03:38.872Z,9.93
2022-11-05T07:04:38.894Z,9.89
2022-11-05T07:05:38.921Z,9.92
2022-11-05T07:06:38.951Z,9.92
2022-11-05T07:07:38.984Z,9.92
2022-11-05T07:08:39.014Z,9.91
2022-11-05T07:09:39.045Z,9.93
2022-11-05T07:10:39.075Z,9.91
2022-11-05T07:11:39.108Z,9.89
2022-11-05T07:12:39.139Z,9.93
2022-11-05T07:13:39.167Z,9.86
2022-11-05T07:14:39.197Z,9.95
2022-11-05T07:15:39.231Z,9.86
2022-11-05T07:16:39.260Z,9.92
2022-11-05T07:17:39.297Z,9.96
2022-11-05T07:18:39.320Z,9.92
2022-11-05T07:19:39.354Z,9.88
2022-11-05T07:20:39.382Z,9.93
2022-11-05T07:21:39.416Z,9.88
2022-11-05T07:22:39.445Z,10.01
2022-11-05T07:23:39.476Z,9.91
2022-11-05T07:24:39.506Z,9.89
2022-11-05T07:25:39.545Z,9.89
2022-11-05T07:26:39.572Z,9.91
2022-11-05T07:27:39.600Z,9.91
2022-11-05T07:28:39.639Z,9.92
2022-11-05T07:29:39.658Z,9.91
2022-11-05T07:30:39.690Z,9.95
2022-11-05T07:31:39.721Z,9.93
2022-11-05T07:32:39.754Z,9.86
2022-11-05T07:33:39.783Z,9.93
2022-11-05T07:34:39.811Z,9.89
2022-11-05T07:35:39.843Z,9.91
2022-11-05T07:36:39.874Z,9.92
2022-11-05T07:37:39.902Z,9.96
2022-11-05T07:38:39.933Z,9.92
2022-11-05T07:39:39.964Z,9.93
2022-11-05T07:40:39.996Z,9.92
2022-11-05T07:41:40.024Z,9.98
2022-11-05T07:42:40.055Z,9.95
2022-11-05T07:43:40.087Z,9.96
2022-11-05T07:44:40.210Z,10.01
2022-11-05T07:45:40.149Z,10.02
2022-11-05T07:46:40.177Z,9.99
2022-11-05T07:47:40.210Z,9.99
2022-11-05T07:48:40.245Z,9.91
2022-11-05T07:49:40.271Z,9.95
2022-11-05T07:50:40.300Z,9.93
2022-11-05T07:51:40.331Z,9.98
2022-11-05T07:52:40.362Z,10.04
2022-11-05T07:53:45.116Z,9.98
2022-11-05T07:54:40.421Z,9.98
2022-11-05T07:55:40.465Z,10.04
2022-11-05T07:56:40.483Z,10.07
2022-11-05T07:57:40.515Z,10.07
2022-11-05T07:58:40.546Z,10.07
2022-11-05T07:59:40.580Z,10.07
2022-11-05T08:00:40.738Z,10.09
2022-11-05T08:01:40.880Z,10.02
2022-11-05T08:02:40.861Z,10.07
2022-11-05T08:03:40.817Z,10.06
2022-11-05T08:04:40.729Z,10.11
2022-11-05T08:05:40.762Z,10.10
2022-11-05T08:06:40.790Z,10.07
2022-11-05T08:07:40.821Z,10.07
2022-11-05T08:08:40.853Z,10.18
2022-11-05T08:09:40.885Z,10.10
2022-11-05T08:10:40.915Z,10.10
2022-11-05T08:11:40.944Z,10.10
2022-11-05T08:12:40.973Z,10.14
2022-11-05T08:13:41.006Z,10.20
2022-11-05T08:14:41.036Z,10.11
2022-11-05T08:15:41.080Z,10.04
2022-11-05T08:16:41.185Z,10.07
2022-11-05T08:17:41.128Z,10.09
2022-11-05T08:18:41.161Z,9.96
2022-11-05T08:19:41.190Z,10.07
2022-11-05T08:20:41.220Z,10.16
2022-11-05T08:21:41.254Z,10.07
2022-11-05T08:22:41.285Z,10.06
2022-11-05T08:23:41.313Z,10.11
2022-11-05T08:24:41.343Z,10.09
2022-11-05T08:25:41.375Z,10.16
2022-11-05T08:26:41.404Z,10.22
2022-11-05T08:27:41.437Z,10.18
2022-11-05T08:28:42.036Z,10.25
2022-11-05T08:29:41.500Z,10.29
2022-11-05T08:30:41.527Z,10.35
2022-11-05T08:31:41.561Z,10.38
2022-11-05T08:32:41.590Z,10.39
2022-11-05T08:33:41.627Z,10.43
2022-11-05T08:34:41.649Z,10.43
2022-11-05T08:35:41.684Z,10.47
2022-11-05T08:36:41.733Z,10.52
2022-11-05T08:37:41.742Z,10.51
2022-11-05T08:38:41.774Z,10.55
2022-11-05T08:39:41.808Z,10.68
2022-11-05T08:40:41.840Z,10.65
2022-11-05T08:41:41.867Z,10.65
2022-11-05T08:42:41.896Z,10.70
2022-11-05T08:43:41.929Z,10.78
2022-11-05T08:44:41.959Z,10.76
2022-11-05T08:45:41.990Z,10.87
2022-11-05T08:46:42.048Z,10.91
2022-11-05T08:47:42.054Z,11.02
2022-11-05T08:48:42.086Z,11.01
2022-11-05T08:49:42.116Z,11.13
2022-11-05T08:50:42.143Z,11.19
2022-11-05T08:51:42.176Z,11.20
2022-11-05T08:52:42.206Z,11.33
2022-11-05T08:53:42.238Z,11.33
2022-11-05T08:54:42.322Z,11.45
2022-11-05T08:55:42.300Z,11.51
2022-11-05T08:56:42.333Z,11.56
2022-11-05T08:57:42.364Z,11.57
2022-11-05T08:58:42.392Z,11.62
2022-11-05T08:59:42.425Z,11.69
2022-11-05T09:00:42.551Z,11.66
2022-11-05T09:01:42.583Z,11.82
2022-11-05T09:02:42.589Z,11.93
2022-11-05T09:03:42.552Z,12.00
2022-11-05T09:04:42.678Z,12.07
2022-11-05T09:05:42.613Z,12.21
2022-11-05T09:06:42.644Z,12.22
2022-11-05T09:07:42.677Z,12.31
2022-11-05T09:08:42.707Z,12.37
2022-11-05T09:09:42.737Z,12.48
2022-11-05T09:10:42.787Z,12.51
2022-11-05T09:12:10.548Z,12.56
2022-11-05T09:12:42.833Z,12.71
2022-11-05T09:13:42.867Z,12.76
2022-11-05T09:14:42.900Z,12.87
2022-11-05T09:15:42.928Z,12.87
2022-11-05T09:16:42.961Z,12.95
2022-11-05T09:17:42.992Z,13.09
2022-11-05T09:18:43.026Z,13.14
2022-11-05T09:19:43.056Z,13.17
2022-11-05T09:20:43.109Z,13.32
2022-11-05T09:21:43.121Z,13.39
2022-11-05T09:22:43.658Z,13.41
2022-11-05T09:23:43.197Z,13.46
2022-11-05T09:24:43.216Z,13.51
2022-11-05T09:25:43.249Z,13.62
2022-11-05T09:26:43.282Z,13.73
2022-11-05T09:27:43.316Z,13.81
2022-11-05T09:28:43.346Z,13.76
2022-11-05T09:29:43.380Z,14.04
2022-11-05T09:30:43.412Z,14.08
2022-11-05T09:31:43.454Z,14.16
2022-11-05T09:32:43.477Z,14.20
2022-11-05T09:33:43.513Z,14.34
2022-11-05T09:34:43.542Z,14.41
2022-11-05T09:35:43.580Z,14.48
2022-11-05T09:36:44.435Z,14.63
2022-11-05T09:37:43.645Z,14.82
2022-11-05T09:38:43.678Z,15.23
2022-11-05T09:39:43.707Z,15.70
2022-11-05T09:40:43.751Z,16.40
2022-11-05T09:41:43.776Z,17.22
2022-11-05T09:42:43.808Z,18.41
2022-11-05T09:43:43.839Z,19.38
2022-11-05T09:44:43.870Z,19.89
2022-11-05T09:45:43.903Z,20.38
2022-11-05T09:46:43.938Z,21.24
2022-11-05T09:47:43.978Z,21.67
2022-11-05T09:48:44.004Z,21.77
2022-11-05T09:49:44.039Z,21.85
2022-11-05T09:50:44.071Z,22.05
2022-11-05T09:51:44.104Z,22.14
2022-11-05T09:52:44.139Z,22.21
2022-11-05T09:53:44.270Z,22.12
2022-11-05T09:54:44.205Z,22.01
2022-11-05T09:55:44.237Z,21.82
2022-11-05T09:56:44.271Z,21.89
2022-11-05T09:57:44.304Z,21.81
2022-11-05T09:58:44.339Z,21.71
2022-11-05T09:59:44.371Z,21.75
2022-11-05T10:00:44.425Z,21.91
2022-11-05T10:01:44.616Z,21.91
2022-11-05T10:02:44.474Z,21.86
2022-11-05T10:03:44.506Z,21.86
2022-11-05T10:04:44.540Z,21.83
2022-11-05T10:05:44.655Z,21.94
2022-11-05T10:06:44.607Z,21.90
2022-11-05T10:07:44.640Z,21.99
2022-11-05T10:08:44.679Z,22.11
2022-11-05T10:09:44.708Z,22.31
2022-11-05T10:10:44.747Z,22.35
2022-11-05T10:11:44.781Z,22.45
2022-11-05T10:12:44.820Z,22.38
2022-11-05T10:13:44.852Z,22.38
2022-11-05T10:14:44.889Z,22.33
2022-11-05T10:15:44.927Z,22.08
2022-11-05T10:16:44.961Z,22.04
2022-11-05T10:17:44.997Z,21.91
2022-11-05T10:18:45.038Z,21.91
2022-11-05T10:19:45.076Z,22.02
2022-11-05T10:20:45.110Z,22.21
2022-11-05T10:22:05.563Z,22.57
2022-11-05T10:22:49.360Z,22.70
2022-11-05T10:23:45.225Z,23.07
2022-11-05T10:24:45.286Z,23.45
2022-11-05T10:25:45.303Z,23.67
2022-11-05T10:26:45.350Z,23.67
2022-11-05T10:27:45.384Z,23.77
2022-11-05T10:28:45.421Z,23.87
2022-11-05T10:29:45.459Z,23.60
2022-11-05T10:30:45.503Z,23.16
2022-11-05T10:31:45.546Z,22.89
2022-11-05T10:32:45.580Z,22.66
2022-11-05T10:33:45.624Z,22.41
2022-11-05T10:34:45.665Z,22.29
2022-11-05T10:35:45.700Z,22.06
2022-11-05T10:36:45.740Z,21.83
2022-11-05T10:37:45.781Z,21.71
2022-11-05T10:38:45.823Z,21.43
2022-11-05T10:39:45.860Z,21.13
2022-11-05T10:40:46.002Z,21.03
2022-11-05T10:41:45.941Z,20.79
2022-11-05T10:42:45.986Z,20.76
2022-11-05T10:43:46.025Z,20.57
2022-11-05T10:44:46.064Z,20.48
2022-11-05T10:45:46.103Z,20.48
2022-11-05T10:46:46.144Z,20.40
2022-11-05T10:47:46.186Z,20.33
2022-11-05T10:48:46.226Z,20.42
2022-11-05T10:49:46.267Z,20.34
2022-11-05T10:50:46.308Z,20.38
2022-11-05T10:51:46.348Z,20.23
2022-11-05T10:52:46.389Z,20.22
2022-11-05T10:53:46.429Z,20.27
2022-11-05T10:54:46.470Z,20.33
2022-11-05T10:55:46.509Z,20.37
2022-11-05T10:56:46.554Z,20.41
2022-11-05T10:57:46.591Z,20.54
2022-11-05T10:58:46.638Z,20.76
2022-11-05T10:59:46.673Z,21.00
2022-11-05T11:00:46.793Z,21.30
2022-11-05T11:01:46.896Z,21.81
2022-11-05T11:02:46.795Z,22.44
2022-11-05T11:03:46.836Z,23.09
2022-11-05T11:04:46.879Z,23.89
2022-11-05T11:05:46.917Z,24.31
2022-11-05T11:06:46.961Z,25.05
2022-11-05T11:07:47.003Z,25.39
2022-11-05T11:08:47.039Z,25.94
2022-11-05T11:09:47.080Z,26.27
2022-11-05T11:10:47.122Z,26.44
2022-11-05T11:11:47.159Z,26.66
2022-11-05T11:12:47.201Z,26.84
2022-11-05T11:13:47.239Z,26.61
2022-11-05T11:14:47.280Z,26.47
2022-11-05T11:15:47.320Z,26.27
2022-11-05T11:16:47.364Z,25.96
2022-11-05T11:17:47.397Z,25.61
2022-11-05T11:18:47.438Z,25.34
2022-11-05T11:19:47.478Z,24.99
2022-11-05T11:20:47.516Z,24.59
2022-11-05T11:21:47.607Z,24.27
2022-11-05T11:22:47.597Z,24.06
2022-11-05T11:23:47.635Z,23.87
2022-11-05T11:24:47.674Z,23.56
2022-11-05T11:25:54.935Z,23.19
2022-11-05T11:27:51.786Z,22.81
2022-11-05T11:28:51.817Z,22.72
2022-11-05T11:30:55.882Z,22.48
2022-11-05T11:31:55.917Z,22.35
2022-11-05T11:33:59.974Z,22.24
2022-11-05T11:35:00.008Z,22.09
2022-11-05T11:36:53.037Z,21.99
2022-11-05T11:37:53.031Z,21.90
2022-11-05T11:39:46.203Z,21.79
2022-11-05T11:40:46.235Z,21.70
2022-11-05T11:42:39.434Z,21.82
2022-11-05T11:43:39.563Z,21.91
2022-11-05T11:45:43.572Z,21.83
2022-11-05T11:46:43.568Z,21.91
2022-11-05T11:48:36.746Z,21.82
2022-11-05T11:49:36.777Z,21.85
2022-11-05T11:51:40.895Z,21.81
2022-11-05T11:52:40.903Z,21.73
2022-11-05T11:54:44.978Z,21.66
2022-11-05T11:55:45.003Z,21.79
2022-11-05T11:57:49.096Z,22.04
2022-11-05T11:58:49.111Z,22.38
2022-11-05T12:00:42.271Z,23.01
2022-11-05T12:01:42.338Z,23.60
2022-11-05T12:03:35.505Z,24.42
2022-11-05T12:04:35.508Z,25.04
2022-11-05T12:06:28.592Z,25.85
2022-11-05T12:07:28.593Z,26.21
2022-11-05T12:09:21.805Z,25.94
2022-11-05T12:10:21.800Z,25.78
2022-11-05T12:12:14.969Z,25.24
2022-11-05T12:13:15.012Z,25.05
2022-11-05T12:15:19.094Z,24.33
2022-11-05T12:16:19.124Z,24.08
2022-11-05T12:18:12.315Z,23.47
2022-11-05T12:19:12.348Z,23.19
2022-11-05T12:21:05.515Z,22.66
2022-11-05T12:22:05.549Z,22.48
2022-11-05T12:23:58.758Z,22.31
2022-11-05T12:24:58.764Z,22.12
2022-11-05T12:26:51.798Z,21.96
2022-11-05T12:27:51.797Z,21.93
2022-11-05T12:29:44.971Z,21.81
2022-11-05T12:30:45.099Z,21.79
2022-11-05T12:32:38.276Z,21.79
2022-11-05T12:33:38.216Z,21.73
2022-11-05T12:35:47.003Z,21.74
2022-11-05T12:36:42.343Z,21.79
2022-11-05T12:38:35.511Z,21.93
2022-11-05T12:39:35.543Z,22.05
2022-11-05T12:41:39.677Z,22.33
2022-11-05T12:42:39.658Z,22.45
2022-11-05T12:44:32.846Z,22.67
2022-11-05T12:45:32.884Z,22.94
2022-11-05T12:47:26.081Z,23.23
2022-11-05T12:48:30.306Z,23.31
2022-11-05T12:50:19.251Z,23.68
2022-11-05T12:51:19.284Z,23.77
2022-11-05T12:53:23.401Z,23.96
2022-11-05T12:54:23.400Z,24.16
2022-11-05T12:56:27.481Z,24.30
2022-11-05T12:57:27.515Z,24.14
2022-11-05T12:59:20.683Z,23.69
2022-11-05T13:00:20.736Z,23.41
2022-11-05T13:02:24.865Z,22.61
2022-11-05T13:03:24.835Z,22.39
2022-11-05T13:05:18.084Z,22.04
2022-11-05T13:06:18.037Z,21.81
2022-11-05T13:08:11.210Z,21.46
2022-11-05T13:09:11.241Z,21.37
2022-11-05T13:11:04.422Z,21.01
2022-11-05T13:12:04.450Z,20.98
2022-11-05T13:13:57.651Z,20.88
2022-11-05T13:14:57.651Z,20.71
2022-11-05T13:16:50.646Z,20.76
2022-11-05T13:17:50.677Z,20.61
2022-11-05T13:19:43.885Z,20.73
2022-11-05T13:20:43.884Z,20.81
2022-11-05T13:22:37.062Z,20.94
2022-11-05T13:23:37.112Z,21.00
2022-11-05T13:25:41.157Z,21.16
2022-11-05T13:26:41.204Z,21.36
2022-11-05T13:28:34.358Z,21.42
2022-11-05T13:29:34.400Z,21.37
2022-11-05T13:31:27.556Z,21.13
2022-11-05T13:32:27.591Z,20.90
2022-11-05T13:34:20.758Z,20.44
2022-11-05T13:35:20.791Z,20.23
2022-11-05T13:37:13.782Z,20.13
2022-11-05T13:38:13.812Z,20.02
2022-11-05T13:40:17.905Z,19.80
2022-11-05T13:41:17.902Z,19.72
2022-11-05T13:43:21.979Z,19.61
2022-11-05T13:44:22.012Z,19.55
2022-11-05T13:46:15.188Z,19.64
2022-11-05T13:47:15.219Z,19.64
2022-11-05T13:49:08.394Z,19.61
2022-11-05T13:50:08.441Z,19.53
2022-11-05T13:52:01.654Z,19.27
2022-11-05T13:53:01.630Z,19.30
2022-11-05T13:54:54.804Z,19.38
2022-11-05T13:55:54.835Z,19.62
2022-11-05T13:57:48.010Z,20.50
2022-11-05T13:58:48.039Z,20.90
2022-11-05T14:00:41.078Z,21.51
2022-11-05T14:01:41.241Z,21.53
2022-11-05T14:03:45.161Z,21.01
2022-11-05T14:04:45.198Z,20.83
2022-11-05T14:06:38.224Z,20.17
2022-11-05T14:07:38.222Z,19.75
2022-11-05T14:09:31.435Z,19.24
2022-11-05T14:10:31.434Z,18.89
2022-11-05T14:12:35.502Z,18.41
2022-11-05T14:13:35.532Z,18.26
2022-11-05T14:15:28.712Z,17.83
2022-11-05T14:16:28.740Z,17.57
2022-11-05T14:18:21.913Z,17.39
2022-11-05T14:19:21.943Z,17.28
2022-11-05T14:21:26.056Z,17.18
2022-11-05T14:22:26.060Z,17.24
2022-11-05T14:24:19.414Z,17.18
2022-11-05T14:25:19.413Z,17.22
2022-11-05T14:27:12.400Z,17.15
2022-11-05T14:28:12.431Z,17.28
2022-11-05T14:30:16.511Z,17.20
2022-11-05T14:31:16.540Z,17.21
2022-11-05T14:33:10.133Z,17.15
2022-11-05T14:34:09.788Z,17.25
2022-11-05T14:36:03.046Z,17.20
2022-11-05T14:37:03.067Z,17.15
2022-11-05T14:39:01.382Z,17.02
2022-11-05T14:39:56.311Z,17.02
2022-11-05T14:41:49.541Z,16.80
2022-11-05T14:42:49.565Z,16.75
2022-11-05T14:44:42.836Z,16.67
2022-11-05T14:45:42.829Z,16.62
2022-11-05T14:47:36.067Z,16.48
2022-11-05T14:48:36.096Z,16.40